sensor_id;sensor_type;location;lat;lon;timestamp;pressure;altitude;pressure_sealevel;temperature;humidity
60240;BME280;46102;39.012;-7.064;2023-04-25T00:00:58;98513.88;;;18.31;63.56
60240;BME280;46102;39.012;-7.064;2023-04-25T00:02:59;98517.38;;;18.28;63.76
60240;BME280;46102;39.012;-7.064;2023-04-25T00:05:01;98504.69;;;18.27;63.83
60240;BME280;46102;39.012;-7.064;2023-04-25T00:07:02;98510.59;;;18.25;64.00
60240;BME280;46102;39.012;-7.064;2023-04-25T00:09:04;98515.84;;;18.30;64.04
60240;BME280;46102;39.012;-7.064;2023-04-25T00:11:07;98510.91;;;18.20;64.37
60240;BME280;46102;39.012;-7.064;2023-04-25T00:13:08;98512.75;;;18.13;64.63
60240;BME280;46102;39.012;-7.064;2023-04-25T00:15:12;98509.03;;;18.05;64.76
60240;BME280;46102;39.012;-7.064;2023-04-25T00:17:12;98509.78;;;18.02;65.02
60240;BME280;46102;39.012;-7.064;2023-04-25T00:19:13;98509.34;;;18.00;64.96
60240;BME280;46102;39.012;-7.064;2023-04-25T00:21:14;98506.13;;;17.98;65.22
60240;BME280;46102;39.012;-7.064;2023-04-25T00:23:17;98504.47;;;17.93;65.47
60240;BME280;46102;39.012;-7.064;2023-04-25T00:25:20;98501.38;;;17.98;65.50
60240;BME280;46102;39.012;-7.064;2023-04-25T00:27:21;98514.38;;;17.94;65.66
60240;BME280;46102;39.012;-7.064;2023-04-25T00:29:22;98510.38;;;17.92;65.97
60240;BME280;46102;39.012;-7.064;2023-04-25T00:31:22;98498.22;;;17.80;66.20
60240;BME280;46102;39.012;-7.064;2023-04-25T00:33:23;98502.19;;;17.79;66.17
60240;BME280;46102;39.012;-7.064;2023-04-25T00:35:24;98498.88;;;17.74;66.52
60240;BME280;46102;39.012;-7.064;2023-04-25T00:37:25;98501.31;;;17.75;66.73
60240;BME280;46102;39.012;-7.064;2023-04-25T00:39:26;98490.44;;;17.66;66.75
60240;BME280;46102;39.012;-7.064;2023-04-25T00:41:27;98495.63;;;17.68;66.79
60240;BME280;46102;39.012;-7.064;2023-04-25T00:43:28;98489.69;;;17.69;67.08
60240;BME280;46102;39.012;-7.064;2023-04-25T00:45:30;98491.53;;;17.62;67.36
60240;BME280;46102;39.012;-7.064;2023-04-25T00:47:32;98487.88;;;17.58;67.50
60240;BME280;46102;39.012;-7.064;2023-04-25T00:49:33;98495.53;;;17.64;67.87
60240;BME280;46102;39.012;-7.064;2023-04-25T00:51:34;98495.41;;;17.57;68.08
60240;BME280;46102;39.012;-7.064;2023-04-25T00:53:35;98492.53;;;17.54;68.32
60240;BME280;46102;39.012;-7.064;2023-04-25T00:55:36;98491.59;;;17.46;68.46
60240;BME280;46102;39.012;-7.064;2023-04-25T00:57:37;98488.38;;;17.44;68.50
60240;BME280;46102;39.012;-7.064;2023-04-25T00:59:42;98485.53;;;17.40;68.68
60240;BME280;46102;39.012;-7.064;2023-04-25T01:01:46;98481.91;;;17.36;68.83
60240;BME280;46102;39.012;-7.064;2023-04-25T01:03:46;98491.03;;;17.37;68.96
60240;BME280;46102;39.012;-7.064;2023-04-25T01:05:47;98494.09;;;17.32;69.12
60240;BME280;46102;39.012;-7.064;2023-04-25T01:07:48;98484.50;;;17.29;69.08
60240;BME280;46102;39.012;-7.064;2023-04-25T01:09:51;98482.91;;;17.28;69.29
60240;BME280;46102;39.012;-7.064;2023-04-25T01:11:52;98482.47;;;17.26;69.31
60240;BME280;46102;39.012;-7.064;2023-04-25T01:13:53;98480.19;;;17.12;69.67
60240;BME280;46102;39.012;-7.064;2023-04-25T01:15:54;98473.75;;;17.08;69.48
60240;BME280;46102;39.012;-7.064;2023-04-25T01:17:57;98469.00;;;17.09;69.53
60240;BME280;46102;39.012;-7.064;2023-04-25T01:19:58;98459.75;;;17.01;69.79
60240;BME280;46102;39.012;-7.064;2023-04-25T01:21:59;98469.22;;;17.00;70.09
60240;BME280;46102;39.012;-7.064;2023-04-25T01:24:01;98465.50;;;16.92;70.14
60240;BME280;46102;39.012;-7.064;2023-04-25T01:26:02;98457.47;;;16.87;70.53
60240;BME280;46102;39.012;-7.064;2023-04-25T01:28:04;98459.44;;;16.87;70.85
60240;BME280;46102;39.012;-7.064;2023-04-25T01:30:07;98451.84;;;16.83;70.97
60240;BME280;46102;39.012;-7.064;2023-04-25T01:32:09;98456.00;;;16.77;71.09
60240;BME280;46102;39.012;-7.064;2023-04-25T01:34:10;98449.69;;;16.77;70.90
60240;BME280;46102;39.012;-7.064;2023-04-25T01:36:12;98447.91;;;16.84;71.00
60240;BME280;46102;39.012;-7.064;2023-04-25T01:38:14;98449.44;;;16.82;71.23
60240;BME280;46102;39.012;-7.064;2023-04-25T01:40:15;98452.38;;;16.73;71.69
60240;BME280;46102;39.012;-7.064;2023-04-25T01:42:16;98444.25;;;16.64;71.81
60240;BME280;46102;39.012;-7.064;2023-04-25T01:44:17;98447.09;;;16.68;72.05
60240;BME280;46102;39.012;-7.064;2023-04-25T01:46:18;98441.41;;;16.61;72.30
60240;BME280;46102;39.012;-7.064;2023-04-25T01:48:19;98439.81;;;16.60;72.44
60240;BME280;46102;39.012;-7.064;2023-04-25T01:50:21;98435.69;;;16.54;72.49
60240;BME280;46102;39.012;-7.064;2023-04-25T01:52:22;98436.44;;;16.51;72.89
60240;BME280;46102;39.012;-7.064;2023-04-25T01:54:23;98432.84;;;16.50;72.81
60240;BME280;46102;39.012;-7.064;2023-04-25T01:56:24;98437.22;;;16.51;72.85
60240;BME280;46102;39.012;-7.064;2023-04-25T01:58:25;98431.34;;;16.53;72.83
60240;BME280;46102;39.012;-7.064;2023-04-25T02:00:37;98429.47;;;16.41;73.31
60240;BME280;46102;39.012;-7.064;2023-04-25T02:02:39;98420.19;;;16.33;73.38
60240;BME280;46102;39.012;-7.064;2023-04-25T02:04:47;98428.41;;;16.30;73.47
60240;BME280;46102;39.012;-7.064;2023-04-25T02:06:48;98425.38;;;16.35;73.65
60240;BME280;46102;39.012;-7.064;2023-04-25T02:08:50;98432.00;;;16.30;73.64
60240;BME280;46102;39.012;-7.064;2023-04-25T02:10:51;98426.00;;;16.28;73.60
60240;BME280;46102;39.012;-7.064;2023-04-25T02:12:53;98433.13;;;16.29;73.57
60240;BME280;46102;39.012;-7.064;2023-04-25T02:15:00;98433.59;;;16.31;73.40
60240;BME280;46102;39.012;-7.064;2023-04-25T02:17:23;98435.91;;;16.29;73.36
60240;BME280;46102;39.012;-7.064;2023-04-25T02:19:25;98431.88;;;16.27;73.49
60240;BME280;46102;39.012;-7.064;2023-04-25T02:21:26;98444.56;;;16.28;73.21
60240;BME280;46102;39.012;-7.064;2023-04-25T02:23:27;98443.41;;;16.29;73.25
60240;BME280;46102;39.012;-7.064;2023-04-25T02:25:28;98446.53;;;16.27;73.45
60240;BME280;46102;39.012;-7.064;2023-04-25T02:27:29;98440.19;;;16.27;73.63
60240;BME280;46102;39.012;-7.064;2023-04-25T02:29:31;98443.31;;;16.25;73.47
60240;BME280;46102;39.012;-7.064;2023-04-25T02:31:31;98448.41;;;16.23;73.76
60240;BME280;46102;39.012;-7.064;2023-04-25T02:33:32;98450.28;;;16.19;74.04
60240;BME280;46102;39.012;-7.064;2023-04-25T02:35:33;98446.25;;;16.16;73.95
60240;BME280;46102;39.012;-7.064;2023-04-25T02:37:35;98450.53;;;16.14;73.82
60240;BME280;46102;39.012;-7.064;2023-04-25T02:39:36;98444.75;;;16.19;74.00
60240;BME280;46102;39.012;-7.064;2023-04-25T02:41:36;98446.97;;;16.13;74.20
60240;BME280;46102;39.012;-7.064;2023-04-25T02:43:37;98453.31;;;16.14;74.50
60240;BME280;46102;39.012;-7.064;2023-04-25T02:45:38;98447.41;;;16.15;74.70
60240;BME280;46102;39.012;-7.064;2023-04-25T02:47:39;98461.53;;;16.10;74.62
60240;BME280;46102;39.012;-7.064;2023-04-25T02:49:40;98463.91;;;15.96;74.91
60240;BME280;46102;39.012;-7.064;2023-04-25T02:51:41;98460.34;;;15.95;75.26
60240;BME280;46102;39.012;-7.064;2023-04-25T02:53:42;98462.31;;;15.95;75.19
60240;BME280;46102;39.012;-7.064;2023-04-25T02:55:42;98463.66;;;15.85;75.45
60240;BME280;46102;39.012;-7.064;2023-04-25T02:57:43;98458.13;;;15.85;75.36
60240;BME280;46102;39.012;-7.064;2023-04-25T02:59:47;98454.53;;;15.85;75.51
60240;BME280;46102;39.012;-7.064;2023-04-25T03:01:48;98451.75;;;15.85;75.22
60240;BME280;46102;39.012;-7.064;2023-04-25T03:03:50;98453.72;;;15.84;75.09
60240;BME280;46102;39.012;-7.064;2023-04-25T03:05:51;98460.50;;;15.87;75.18
60240;BME280;46102;39.012;-7.064;2023-04-25T03:07:57;98456.94;;;15.86;75.18
60240;BME280;46102;39.012;-7.064;2023-04-25T03:10:00;98458.91;;;15.86;75.17
60240;BME280;46102;39.012;-7.064;2023-04-25T03:12:06;98456.94;;;15.86;75.03
60240;BME280;46102;39.012;-7.064;2023-04-25T03:14:08;98464.78;;;15.84;75.12
60240;BME280;46102;39.012;-7.064;2023-04-25T03:16:09;98466.75;;;15.84;75.16
60240;BME280;46102;39.012;-7.064;2023-04-25T03:18:11;98464.34;;;15.82;75.29
60240;BME280;46102;39.012;-7.064;2023-04-25T03:20:14;98464.34;;;15.82;75.45
60240;BME280;46102;39.012;-7.064;2023-04-25T03:22:15;98472.63;;;15.82;75.38
60240;BME280;46102;39.012;-7.064;2023-04-25T03:24:16;98473.34;;;15.79;75.57
60240;BME280;46102;39.012;-7.064;2023-04-25T03:26:17;98473.63;;;15.74;75.87
60240;BME280;46102;39.012;-7.064;2023-04-25T03:28:18;98476.25;;;15.70;75.98
60240;BME280;46102;39.012;-7.064;2023-04-25T03:30:19;98473.81;;;15.69;75.88
60240;BME280;46102;39.012;-7.064;2023-04-25T03:32:20;98479.72;;;15.67;76.10
60240;BME280;46102;39.012;-7.064;2023-04-25T03:34:21;98488.44;;;15.69;76.14
60240;BME280;46102;39.012;-7.064;2023-04-25T03:36:24;98486.50;;;15.70;76.02
60240;BME280;46102;39.012;-7.064;2023-04-25T03:38:25;98477.97;;;15.75;75.91
60240;BME280;46102;39.012;-7.064;2023-04-25T03:40:26;98480.97;;;15.70;76.19
60240;BME280;46102;39.012;-7.064;2023-04-25T03:42:41;98478.00;;;15.62;76.48
60240;BME280;46102;39.012;-7.064;2023-04-25T03:44:42;98485.13;;;15.64;76.32
60240;BME280;46102;39.012;-7.064;2023-04-25T03:46:43;98481.22;;;15.65;76.39
60240;BME280;46102;39.012;-7.064;2023-04-25T03:48:44;98480.75;;;15.62;76.55
60240;BME280;46102;39.012;-7.064;2023-04-25T03:50:50;98475.22;;;15.62;76.76
60240;BME280;46102;39.012;-7.064;2023-04-25T03:52:51;98482.25;;;15.60;76.93
60240;BME280;46102;39.012;-7.064;2023-04-25T03:54:52;98482.88;;;15.53;77.33
60240;BME280;46102;39.012;-7.064;2023-04-25T03:56:56;98486.34;;;15.50;77.35
60240;BME280;46102;39.012;-7.064;2023-04-25T03:59:00;98485.88;;;15.48;77.34
60240;BME280;46102;39.012;-7.064;2023-04-25T04:01:03;98475.19;;;15.47;77.45
60240;BME280;46102;39.012;-7.064;2023-04-25T04:03:08;98483.03;;;15.45;77.29
60240;BME280;46102;39.012;-7.064;2023-04-25T04:05:09;98476.81;;;15.48;77.57
60240;BME280;46102;39.012;-7.064;2023-04-25T04:07:13;98476.59;;;15.40;77.68
60240;BME280;46102;39.012;-7.064;2023-04-25T04:09:17;98480.88;;;15.38;78.01
60240;BME280;46102;39.012;-7.064;2023-04-25T04:11:19;98479.97;;;15.34;77.85
60240;BME280;46102;39.012;-7.064;2023-04-25T04:13:19;98482.34;;;15.35;77.66
60240;BME280;46102;39.012;-7.064;2023-04-25T04:15:20;98476.50;;;15.37;77.83
60240;BME280;46102;39.012;-7.064;2023-04-25T04:17:22;98475.22;;;15.34;77.93
60240;BME280;46102;39.012;-7.064;2023-04-25T04:19:23;98481.09;;;15.33;78.02
60240;BME280;46102;39.012;-7.064;2023-04-25T04:21:33;98478.59;;;15.28;78.17
60240;BME280;46102;39.012;-7.064;2023-04-25T04:23:34;98478.38;;;15.20;78.57
60240;BME280;46102;39.012;-7.064;2023-04-25T04:25:36;98483.13;;;15.20;78.85
60240;BME280;46102;39.012;-7.064;2023-04-25T04:27:43;98491.03;;;15.22;78.45
60240;BME280;46102;39.012;-7.064;2023-04-25T04:29:57;98482.41;;;15.23;78.32
60240;BME280;46102;39.012;-7.064;2023-04-25T04:32:07;98490.44;;;15.28;78.20
60240;BME280;46102;39.012;-7.064;2023-04-25T04:34:10;98491.25;;;15.29;78.36
60240;BME280;46102;39.012;-7.064;2023-04-25T04:36:12;98492.88;;;15.30;78.30
60240;BME280;46102;39.012;-7.064;2023-04-25T04:38:14;98498.41;;;15.30;78.30
60240;BME280;46102;39.012;-7.064;2023-04-25T04:40:16;98486.44;;;15.26;78.40
60240;BME280;46102;39.012;-7.064;2023-04-25T04:42:24;98492.47;;;15.15;78.75
60240;BME280;46102;39.012;-7.064;2023-04-25T04:44:36;98488.19;;;15.06;79.18
60240;BME280;46102;39.012;-7.064;2023-04-25T04:46:57;98493.38;;;15.07;79.01
60240;BME280;46102;39.012;-7.064;2023-04-25T04:49:27;98494.88;;;15.05;79.17
60240;BME280;46102;39.012;-7.064;2023-04-25T04:51:42;98483.38;;;15.03;79.13
60240;BME280;46102;39.012;-7.064;2023-04-25T04:54:10;98486.00;;;14.99;79.38
60240;BME280;46102;39.012;-7.064;2023-04-25T04:56:35;98481.16;;;15.08;79.01
60240;BME280;46102;39.012;-7.064;2023-04-25T04:58:55;98498.47;;;14.93;79.34
60240;BME280;46102;39.012;-7.064;2023-04-25T05:01:15;98489.28;;;14.89;79.65
60240;BME280;46102;39.012;-7.064;2023-04-25T05:03:35;98493.53;;;14.86;80.08
60240;BME280;46102;39.012;-7.064;2023-04-25T05:05:44;98503.66;;;14.82;80.05
60240;BME280;46102;39.012;-7.064;2023-04-25T05:08:03;98494.47;;;14.78;80.39
60240;BME280;46102;39.012;-7.064;2023-04-25T05:10:17;98496.50;;;14.81;80.23
60240;BME280;46102;39.012;-7.064;2023-04-25T05:12:30;98499.84;;;14.74;80.17
60240;BME280;46102;39.012;-7.064;2023-04-25T05:14:46;98504.81;;;14.69;80.60
60240;BME280;46102;39.012;-7.064;2023-04-25T05:17:16;98504.25;;;14.75;80.30
60240;BME280;46102;39.012;-7.064;2023-04-25T05:19:35;98509.31;;;14.73;80.23
60240;BME280;46102;39.012;-7.064;2023-04-25T05:22:05;98514.81;;;14.73;80.57
60240;BME280;46102;39.012;-7.064;2023-04-25T05:24:15;98514.22;;;14.68;80.67
60240;BME280;46102;39.012;-7.064;2023-04-25T05:26:35;98510.31;;;14.56;80.67
60240;BME280;46102;39.012;-7.064;2023-04-25T05:29:02;98511.31;;;14.52;80.98
60240;BME280;46102;39.012;-7.064;2023-04-25T05:31:09;98511.25;;;14.61;80.58
60240;BME280;46102;39.012;-7.064;2023-04-25T05:33:19;98516.03;;;14.51;80.81
60240;BME280;46102;39.012;-7.064;2023-04-25T05:35:20;98515.59;;;14.49;81.00
60240;BME280;46102;39.012;-7.064;2023-04-25T05:37:22;98512.81;;;14.49;80.83
60240;BME280;46102;39.012;-7.064;2023-04-25T05:39:30;98519.38;;;14.45;80.79
60240;BME280;46102;39.012;-7.064;2023-04-25T05:41:48;98522.13;;;14.45;80.79
60240;BME280;46102;39.012;-7.064;2023-04-25T05:44:12;98520.16;;;14.45;80.46
60240;BME280;46102;39.012;-7.064;2023-04-25T05:46:18;98518.56;;;14.44;80.65
60240;BME280;46102;39.012;-7.064;2023-04-25T05:48:46;98520.41;;;14.40;80.73
60240;BME280;46102;39.012;-7.064;2023-04-25T05:51:04;98520.06;;;14.42;80.87
60240;BME280;46102;39.012;-7.064;2023-04-25T05:53:21;98527.19;;;14.43;80.33
60240;BME280;46102;39.012;-7.064;2023-04-25T05:55:28;98522.38;;;14.40;80.51
60240;BME280;46102;39.012;-7.064;2023-04-25T05:57:30;98522.84;;;14.42;80.61
60240;BME280;46102;39.012;-7.064;2023-04-25T05:59:31;98525.81;;;14.36;80.99
60240;BME280;46102;39.012;-7.064;2023-04-25T06:01:32;98525.00;;;14.36;81.24
60240;BME280;46102;39.012;-7.064;2023-04-25T06:03:33;98527.41;;;14.37;81.13
60240;BME280;46102;39.012;-7.064;2023-04-25T06:05:34;98526.25;;;14.38;81.27
60240;BME280;46102;39.012;-7.064;2023-04-25T06:07:35;98523.63;;;14.42;80.87
60240;BME280;46102;39.012;-7.064;2023-04-25T06:09:37;98521.81;;;14.46;80.84
60240;BME280;46102;39.012;-7.064;2023-04-25T06:11:39;98526.63;;;14.49;80.76
60240;BME280;46102;39.012;-7.064;2023-04-25T06:13:40;98527.25;;;14.55;80.55
60240;BME280;46102;39.012;-7.064;2023-04-25T06:15:41;98525.84;;;14.61;80.00
60240;BME280;46102;39.012;-7.064;2023-04-25T06:17:42;98529.53;;;14.65;80.08
60240;BME280;46102;39.012;-7.064;2023-04-25T06:19:43;98534.38;;;14.68;80.20
60240;BME280;46102;39.012;-7.064;2023-04-25T06:21:44;98531.38;;;14.73;79.85
60240;BME280;46102;39.012;-7.064;2023-04-25T06:23:45;98537.47;;;14.79;79.79
60240;BME280;46102;39.012;-7.064;2023-04-25T06:25:52;98540.69;;;14.81;79.80
60240;BME280;46102;39.012;-7.064;2023-04-25T06:27:54;98540.94;;;14.88;79.33
60240;BME280;46102;39.012;-7.064;2023-04-25T06:29:55;98542.53;;;14.89;79.35
60240;BME280;46102;39.012;-7.064;2023-04-25T06:31:56;98548.88;;;14.90;79.46
60240;BME280;46102;39.012;-7.064;2023-04-25T06:33:58;98547.03;;;14.94;79.09
60240;BME280;46102;39.012;-7.064;2023-04-25T06:36:00;98549.09;;;14.97;79.21
60240;BME280;46102;39.012;-7.064;2023-04-25T06:38:02;98541.72;;;15.13;78.35
60240;BME280;46102;39.012;-7.064;2023-04-25T06:40:05;98547.94;;;15.10;78.09
60240;BME280;46102;39.012;-7.064;2023-04-25T06:42:05;98554.28;;;15.11;78.29
60240;BME280;46102;39.012;-7.064;2023-04-25T06:44:20;98549.97;;;15.26;77.69
60240;BME280;46102;39.012;-7.064;2023-04-25T06:46:26;98546.25;;;15.46;76.83
60240;BME280;46102;39.012;-7.064;2023-04-25T06:48:28;98533.53;;;15.57;76.16
60240;BME280;46102;39.012;-7.064;2023-04-25T06:50:29;98540.91;;;15.66;75.73
60240;BME280;46102;39.012;-7.064;2023-04-25T06:52:30;98547.47;;;15.73;75.18
60240;BME280;46102;39.012;-7.064;2023-04-25T06:54:31;98544.66;;;15.86;74.66
60240;BME280;46102;39.012;-7.064;2023-04-25T06:56:41;98542.19;;;15.96;73.84
60240;BME280;46102;39.012;-7.064;2023-04-25T06:58:49;98545.59;;;16.06;73.73
60240;BME280;46102;39.012;-7.064;2023-04-25T07:00:59;98545.63;;;16.21;73.12
60240;BME280;46102;39.012;-7.064;2023-04-25T07:03:00;98538.88;;;16.35;72.58
60240;BME280;46102;39.012;-7.064;2023-04-25T07:05:02;98543.13;;;16.48;71.65
60240;BME280;46102;39.012;-7.064;2023-04-25T07:07:05;98541.38;;;16.56;71.34
60240;BME280;46102;39.012;-7.064;2023-04-25T07:09:19;98537.41;;;16.73;71.01
60240;BME280;46102;39.012;-7.064;2023-04-25T07:11:22;98542.56;;;16.87;70.00
60240;BME280;46102;39.012;-7.064;2023-04-25T07:13:23;98536.91;;;16.99;69.43
60240;BME280;46102;39.012;-7.064;2023-04-25T07:15:23;98534.81;;;17.12;68.97
60240;BME280;46102;39.012;-7.064;2023-04-25T07:17:25;98539.09;;;17.25;68.74
60240;BME280;46102;39.012;-7.064;2023-04-25T07:19:26;98545.81;;;17.43;68.16
60240;BME280;46102;39.012;-7.064;2023-04-25T07:21:31;98542.91;;;17.56;67.78
60240;BME280;46102;39.012;-7.064;2023-04-25T07:23:35;98539.25;;;17.71;67.11
60240;BME280;46102;39.012;-7.064;2023-04-25T07:25:43;98543.16;;;17.86;66.45
60240;BME280;46102;39.012;-7.064;2023-04-25T07:27:46;98548.19;;;18.00;66.09
60240;BME280;46102;39.012;-7.064;2023-04-25T07:29:51;98543.91;;;18.25;65.17
60240;BME280;46102;39.012;-7.064;2023-04-25T07:31:51;98546.28;;;18.46;64.02
60240;BME280;46102;39.012;-7.064;2023-04-25T07:33:54;98548.19;;;18.65;63.34
60240;BME280;46102;39.012;-7.064;2023-04-25T07:35:55;98551.72;;;18.85;62.33
60240;BME280;46102;39.012;-7.064;2023-04-25T07:37:57;98551.50;;;18.98;61.96
60240;BME280;46102;39.012;-7.064;2023-04-25T07:39:58;98553.06;;;19.22;61.25
60240;BME280;46102;39.012;-7.064;2023-04-25T07:41:59;98543.44;;;19.42;60.30
60240;BME280;46102;39.012;-7.064;2023-04-25T07:44:03;98548.78;;;19.54;59.71
60240;BME280;46102;39.012;-7.064;2023-04-25T07:46:06;98550.44;;;19.59;59.63
60240;BME280;46102;39.012;-7.064;2023-04-25T07:48:08;98546.63;;;19.71;58.42
60240;BME280;46102;39.012;-7.064;2023-04-25T07:50:13;98545.88;;;19.74;58.34
60240;BME280;46102;39.012;-7.064;2023-04-25T07:52:14;98554.56;;;19.69;58.48
60240;BME280;46102;39.012;-7.064;2023-04-25T07:54:21;98555.44;;;19.76;58.37
60240;BME280;46102;39.012;-7.064;2023-04-25T07:56:28;98558.31;;;19.84;58.36
60240;BME280;46102;39.012;-7.064;2023-04-25T07:58:29;98548.50;;;19.97;57.93
60240;BME280;46102;39.012;-7.064;2023-04-25T08:00:34;98556.19;;;20.07;57.35
60240;BME280;46102;39.012;-7.064;2023-04-25T08:02:57;98551.97;;;20.21;56.82
60240;BME280;46102;39.012;-7.064;2023-04-25T08:04:57;98549.97;;;20.21;56.58
60240;BME280;46102;39.012;-7.064;2023-04-25T08:06:59;98550.47;;;20.30;55.51
60240;BME280;46102;39.012;-7.064;2023-04-25T08:09:05;98549.91;;;20.51;54.81
60240;BME280;46102;39.012;-7.064;2023-04-25T08:11:11;98549.91;;;20.55;55.37
60240;BME280;46102;39.012;-7.064;2023-04-25T08:13:12;98553.19;;;20.61;55.17
60240;BME280;46102;39.012;-7.064;2023-04-25T08:15:15;98556.94;;;20.83;53.85
60240;BME280;46102;39.012;-7.064;2023-04-25T08:17:17;98553.09;;;20.94;53.84
60240;BME280;46102;39.012;-7.064;2023-04-25T08:19:19;98559.25;;;21.25;52.83
60240;BME280;46102;39.012;-7.064;2023-04-25T08:21:21;98556.13;;;21.30;52.85
60240;BME280;46102;39.012;-7.064;2023-04-25T08:23:22;98555.84;;;21.46;51.63
60240;BME280;46102;39.012;-7.064;2023-04-25T08:25:35;98560.28;;;21.58;52.24
60240;BME280;46102;39.012;-7.064;2023-04-25T08:27:36;98561.97;;;21.77;51.30
60240;BME280;46102;39.012;-7.064;2023-04-25T08:29:37;98561.22;;;21.91;50.51
60240;BME280;46102;39.012;-7.064;2023-04-25T08:31:38;98549.28;;;21.94;50.25
60240;BME280;46102;39.012;-7.064;2023-04-25T08:33:40;98552.91;;;22.09;50.10
60240;BME280;46102;39.012;-7.064;2023-04-25T08:35:50;98553.84;;;22.41;48.94
60240;BME280;46102;39.012;-7.064;2023-04-25T08:37:51;98547.47;;;22.70;48.33
60240;BME280;46102;39.012;-7.064;2023-04-25T08:39:53;98553.88;;;22.88;48.03
60240;BME280;46102;39.012;-7.064;2023-04-25T08:42:15;98557.47;;;23.03;47.41
60240;BME280;46102;39.012;-7.064;2023-04-25T08:44:16;98553.88;;;23.24;46.19
60240;BME280;46102;39.012;-7.064;2023-04-25T08:46:18;98557.47;;;23.35;44.72
60240;BME280;46102;39.012;-7.064;2023-04-25T08:48:35;98555.06;;;23.37;44.49
60240;BME280;46102;39.012;-7.064;2023-04-25T08:52:50;98562.59;;;23.55;43.25
60240;BME280;46102;39.012;-7.064;2023-04-25T08:54:53;98548.19;;;23.56;43.67
60240;BME280;46102;39.012;-7.064;2023-04-25T08:56:56;98553.34;;;23.68;42.69
60240;BME280;46102;39.012;-7.064;2023-04-25T08:58:59;98554.13;;;23.80;41.51
60240;BME280;46102;39.012;-7.064;2023-04-25T09:01:01;98547.66;;;23.97;41.26
60240;BME280;46102;39.012;-7.064;2023-04-25T09:03:06;98555.94;;;24.22;41.23
60240;BME280;46102;39.012;-7.064;2023-04-25T09:05:09;98545.41;;;24.48;40.87
60240;BME280;46102;39.012;-7.064;2023-04-25T09:07:11;98551.56;;;24.81;39.21
60240;BME280;46102;39.012;-7.064;2023-04-25T09:09:12;98551.94;;;24.86;38.38
60240;BME280;46102;39.012;-7.064;2023-04-25T09:11:15;98554.22;;;24.99;38.15
60240;BME280;46102;39.012;-7.064;2023-04-25T09:13:26;98552.06;;;25.21;36.87
60240;BME280;46102;39.012;-7.064;2023-04-25T09:15:51;98557.59;;;25.28;35.82
60240;BME280;46102;39.012;-7.064;2023-04-25T09:18:11;98548.22;;;25.45;35.16
60240;BME280;46102;39.012;-7.064;2023-04-25T09:20:16;98552.75;;;25.70;32.97
60240;BME280;46102;39.012;-7.064;2023-04-25T09:22:17;98556.03;;;25.65;33.89
60240;BME280;46102;39.012;-7.064;2023-04-25T09:24:31;98550.50;;;25.92;33.53
60240;BME280;46102;39.012;-7.064;2023-04-25T09:26:32;98547.31;;;26.21;32.96
60240;BME280;46102;39.012;-7.064;2023-04-25T09:28:35;98552.53;;;26.49;32.44
60240;BME280;46102;39.012;-7.064;2023-04-25T09:30:38;98550.25;;;26.68;31.37
60240;BME280;46102;39.012;-7.064;2023-04-25T09:33:03;98557.78;;;26.74;31.24
60240;BME280;46102;39.012;-7.064;2023-04-25T09:35:05;98554.63;;;26.96;31.17
60240;BME280;46102;39.012;-7.064;2023-04-25T09:37:07;98550.22;;;27.18;31.01
60240;BME280;46102;39.012;-7.064;2023-04-25T09:39:28;98554.53;;;27.27;30.02
60240;BME280;46102;39.012;-7.064;2023-04-25T09:41:40;98555.81;;;27.22;30.19
60240;BME280;46102;39.012;-7.064;2023-04-25T09:43:45;98562.63;;;27.25;29.56
60240;BME280;46102;39.012;-7.064;2023-04-25T09:45:47;98557.69;;;27.29;29.09
60240;BME280;46102;39.012;-7.064;2023-04-25T09:47:55;98552.94;;;27.26;28.10
60240;BME280;46102;39.012;-7.064;2023-04-25T09:49:59;98560.22;;;27.23;28.63
60240;BME280;46102;39.012;-7.064;2023-04-25T09:52:00;98544.97;;;27.44;28.95
60240;BME280;46102;39.012;-7.064;2023-04-25T09:54:07;98556.97;;;27.68;28.34
60240;BME280;46102;39.012;-7.064;2023-04-25T09:56:12;98553.63;;;27.97;28.13
60240;BME280;46102;39.012;-7.064;2023-04-25T09:58:14;98554.03;;;28.15;27.37
60240;BME280;46102;39.012;-7.064;2023-04-25T10:00:15;98549.84;;;28.40;27.13
60240;BME280;46102;39.012;-7.064;2023-04-25T10:02:21;98553.78;;;28.62;26.57
60240;BME280;46102;39.012;-7.064;2023-04-25T10:04:28;98548.56;;;28.77;26.64
60240;BME280;46102;39.012;-7.064;2023-04-25T10:06:41;98554.75;;;28.89;26.77
60240;BME280;46102;39.012;-7.064;2023-04-25T10:08:44;98542.41;;;28.99;25.94
60240;BME280;46102;39.012;-7.064;2023-04-25T10:10:46;98539.34;;;29.10;25.74
60240;BME280;46102;39.012;-7.064;2023-04-25T10:12:48;98542.41;;;29.15;24.85
60240;BME280;46102;39.012;-7.064;2023-04-25T10:14:49;98543.03;;;29.23;24.95
60240;BME280;46102;39.012;-7.064;2023-04-25T10:16:52;98547.28;;;29.15;24.81
60240;BME280;46102;39.012;-7.064;2023-04-25T10:18:54;98542.22;;;29.22;24.42
60240;BME280;46102;39.012;-7.064;2023-04-25T10:20:56;98543.84;;;29.23;23.89
60240;BME280;46102;39.012;-7.064;2023-04-25T10:23:06;98541.31;;;29.42;23.25
60240;BME280;46102;39.012;-7.064;2023-04-25T10:25:10;98545.13;;;29.64;23.68
60240;BME280;46102;39.012;-7.064;2023-04-25T10:27:12;98545.69;;;29.59;22.99
60240;BME280;46102;39.012;-7.064;2023-04-25T10:29:21;98545.06;;;29.52;22.32
60240;BME280;46102;39.012;-7.064;2023-04-25T10:31:23;98538.88;;;29.73;22.42
60240;BME280;46102;39.012;-7.064;2023-04-25T10:35:34;98545.19;;;30.06;20.58
60240;BME280;46102;39.012;-7.064;2023-04-25T10:37:35;98544.16;;;30.13;19.80
60240;BME280;46102;39.012;-7.064;2023-04-25T10:39:40;98539.31;;;30.26;18.19
60240;BME280;46102;39.012;-7.064;2023-04-25T10:41:53;98541.22;;;30.17;19.06
60240;BME280;46102;39.012;-7.064;2023-04-25T10:44:01;98541.91;;;30.21;18.42
60240;BME280;46102;39.012;-7.064;2023-04-25T10:48:28;98532.22;;;30.47;17.04
60240;BME280;46102;39.012;-7.064;2023-04-25T10:50:37;98535.59;;;30.81;17.20
60240;BME280;46102;39.012;-7.064;2023-04-25T10:52:38;98533.03;;;30.74;17.67
60240;BME280;46102;39.012;-7.064;2023-04-25T10:54:46;98533.78;;;30.87;17.53
60240;BME280;46102;39.012;-7.064;2023-04-25T10:56:48;98525.28;;;31.00;17.44
60240;BME280;46102;39.012;-7.064;2023-04-25T10:58:51;98532.75;;;31.06;17.14